createdAt,value
2023-01-29T00:03:11.908Z,-2.47
2023-01-29T00:18:13.312Z,-2.42
2023-01-29T00:33:14.740Z,-2.48
2023-01-29T00:48:16.108Z,-2.51
2023-01-29T01:03:17.448Z,-2.48
2023-01-29T01:18:22.139Z,-2.57
2023-01-29T01:33:24.283Z,-2.65
2023-01-29T01:48:25.663Z,-2.73
2023-01-29T02:03:45.902Z,-2.61
2023-01-29T02:18:47.261Z,-2.53
2023-01-29T02:33:49.232Z,-2.65
2023-01-29T02:48:50.591Z,-2.65
2023-01-29T03:03:51.942Z,-2.69
2023-01-29T03:18:54.052Z,-2.77
2023-01-29T03:33:55.497Z,-2.79
2023-01-29T03:48:57.015Z,-2.87
2023-01-29T04:03:58.527Z,-2.74
2023-01-29T04:19:01.208Z,-2.97
2023-01-29T04:34:08.161Z,-2.74
2023-01-29T04:49:09.913Z,-2.94
2023-01-29T05:04:11.525Z,-3.02
2023-01-29T05:19:15.704Z,-3.02
2023-01-29T05:34:17.085Z,-3.01
2023-01-29T05:49:18.452Z,-3.01
2023-01-29T06:04:19.784Z,-3.04
2023-01-29T06:19:21.133Z,-2.94
2023-01-29T06:34:22.538Z,-2.90
2023-01-29T06:49:23.897Z,-2.94
2023-01-29T07:04:25.256Z,-2.79
2023-01-29T07:19:26.621Z,-2.74
2023-01-29T07:34:27.997Z,-2.54
2023-01-29T07:49:29.343Z,-2.31
2023-01-29T08:04:30.825Z,-2.09
2023-01-29T08:19:32.226Z,-2.04
2023-01-29T08:34:33.635Z,-1.86
2023-01-29T08:49:35.017Z,-1.80
2023-01-29T09:04:36.424Z,-1.67
2023-01-29T09:19:37.800Z,-1.40
2023-01-29T09:34:39.179Z,-1.47
2023-01-29T09:49:42.252Z,-1.18
2023-01-29T10:04:43.737Z,-0.56
2023-01-29T10:19:45.152Z,0.36
2023-01-29T10:34:46.513Z,-0.47
2023-01-29T10:49:47.913Z,-0.13
2023-01-29T11:04:49.305Z,-0.20
2023-01-29T11:19:55.611Z,0.40
2023-01-29T11:34:56.991Z,0.43
2023-01-29T11:49:58.382Z,0.07
2023-01-29T12:04:59.759Z,0.21
2023-01-29T12:20:01.089Z,0.72
2023-01-29T12:35:02.704Z,0.52
2023-01-29T12:50:04.474Z,0.85
2023-01-29T13:05:05.894Z,0.54
2023-01-29T13:20:07.328Z,0.46
2023-01-29T13:35:08.691Z,-0.13
2023-01-29T13:50:10.071Z,-0.02
2023-01-29T14:05:11.405Z,-0.36
2023-01-29T14:20:12.780Z,-0.59
2023-01-29T14:35:14.256Z,-0.60
2023-01-29T14:50:15.696Z,-0.59
2023-01-29T15:05:17.357Z,-0.76
2023-01-29T15:20:18.906Z,-1.15
2023-01-29T15:35:20.254Z,-1.28
2023-01-29T15:50:21.639Z,-1.73
2023-01-29T16:05:23.303Z,-2.21
2023-01-29T16:20:24.661Z,-2.53
2023-01-29T16:35:26.013Z,-2.93
2023-01-29T16:50:27.671Z,-3.27
2023-01-29T17:05:29.104Z,-3.36
2023-01-29T17:20:30.510Z,-3.36
2023-01-29T17:35:31.936Z,-3.40
2023-01-29T17:50:33.349Z,-3.52
2023-01-29T18:05:34.883Z,-3.59
2023-01-29T18:20:38.403Z,-3.56
2023-01-29T18:35:39.785Z,-3.51
2023-01-29T18:50:41.171Z,-3.64
2023-01-29T19:05:42.583Z,-3.79
2023-01-29T19:20:44.072Z,-3.84
2023-01-29T19:35:45.552Z,-3.94
2023-01-29T19:50:46.924Z,-4.02
2023-01-29T20:05:48.274Z,-4.03
2023-01-29T20:20:49.683Z,-4.02
2023-01-29T20:35:51.122Z,-3.83
2023-01-29T20:50:52.497Z,-3.83
2023-01-29T21:05:54.320Z,-3.79
2023-01-29T21:20:55.769Z,-3.43
2023-01-29T21:35:57.184Z,-3.52
2023-01-29T21:50:58.587Z,-3.45
2023-01-29T22:05:59.954Z,-3.35
2023-01-29T22:21:04.430Z,-3.55
2023-01-29T22:36:05.840Z,-3.62
2023-01-29T22:51:10.523Z,-3.83
2023-01-29T23:06:11.897Z,-3.44
2023-01-29T23:21:13.257Z,-3.40
2023-01-29T23:36:14.614Z,-3.25
2023-01-29T23:51:16.003Z,-3.30
